Time;durP1;ratioP1;P1;durP2;ratioP2;P2;SDS_P1;SDS_P2;PMS_P1;PMS_P2;Temp;Humidity;BMP_temperature;BMP_pressure;BME280_temperature;BME280_humidity;BME280_pressure;Samples;Min_cycle;Max_cycle;Signal;HPM_P1;HPM_P2
2022/12/10 00:01:55;;;;;;;63.65;51.97;;;0.00;99.90;;;;;;5052333;28;20060;-74
2022/12/10 00:04:21;;;;;;;56.03;42.63;;;0.00;99.90;;;;;;5052792;28;20464;-74
2022/12/10 00:06:47;;;;;;;46.33;35.95;;;0.00;99.90;;;;;;5055301;28;20047;-75
2022/12/10 00:09:18;;;;;;;45.78;32.83;;;0.00;99.90;;;;;;5047924;28;20044;-74
2022/12/10 00:11:44;;;;;;;41.88;29.90;;;0.00;99.90;;;;;;5057162;28;20147;-75
2022/12/10 00:14:12;;;;;;;52.05;31.50;;;-0.10;99.90;;;;;;5055475;28;20056;-74
2022/12/10 00:16:37;;;;;;;44.05;31.83;;;-0.10;99.90;;;;;;5059223;28;20040;-75
2022/12/10 00:19:04;;;;;;;41.80;29.63;;;0.00;99.90;;;;;;5058114;28;20060;-74
2022/12/10 00:21:32;;;;;;;48.00;31.10;;;0.00;99.90;;;;;;5053498;28;20045;-74
2022/12/10 00:23:58;;;;;;;44.47;31.05;;;0.00;99.90;;;;;;5058139;28;20049;-74
2022/12/10 00:26:34;;;;;;;43.70;30.60;;;0.00;99.90;;;;;;5056216;28;20052;-74
2022/12/10 00:29:02;;;;;;;41.08;29.50;;;0.00;99.90;;;;;;5047186;28;20140;-75
2022/12/10 00:31:33;;;;;;;48.53;33.95;;;0.00;99.90;;;;;;5064812;28;20649;-75
2022/12/10 00:34:01;;;;;;;45.50;31.42;;;0.00;99.90;;;;;;5052781;28;20044;-75
2022/12/10 00:36:33;;;;;;;43.17;31.83;;;0.00;99.90;;;;;;5059266;28;20048;-74
2022/12/10 00:38:59;;;;;;;48.83;33.95;;;0.00;99.90;;;;;;5050846;28;20073;-75
2022/12/10 00:41:25;;;;;;;48.15;31.58;;;0.00;99.90;;;;;;5085708;28;20052;-74
2022/12/10 00:43:51;;;;;;;44.33;31.55;;;-0.10;99.90;;;;;;5050186;28;20036;-75
2022/12/10 00:46:18;;;;;;;45.92;32.78;;;-0.10;99.90;;;;;;5067841;28;20104;-75
2022/12/10 00:48:44;;;;;;;47.60;32.90;;;-0.10;99.90;;;;;;5050110;28;20041;-74
2022/12/10 00:51:15;;;;;;;44.58;32.17;;;-0.10;99.90;;;;;;5063492;28;20044;-74
2022/12/10 00:53:42;;;;;;;52.00;33.50;;;-0.10;99.90;;;;;;5050981;28;20063;-75
2022/12/10 00:56:09;;;;;;;47.10;32.80;;;-0.10;99.90;;;;;;5051154;28;20047;-75
2022/12/10 00:58:36;;;;;;;45.90;32.03;;;-0.10;99.90;;;;;;5050821;28;20053;-74
2022/12/10 01:01:26;;;;;;;48.65;32.85;;;-0.10;99.90;;;;;;5055941;28;20033;-75
2022/12/10 01:03:55;;;;;;;45.00;29.85;;;-0.10;99.90;;;;;;5049528;28;20056;-75
2022/12/10 01:06:26;;;;;;;45.38;31.23;;;-0.20;99.90;;;;;;5061422;28;20048;-74
2022/12/10 01:08:54;;;;;;;43.47;31.13;;;-0.20;99.90;;;;;;5086823;28;20089;-74
2022/12/10 01:11:22;;;;;;;46.00;31.42;;;-0.30;99.90;;;;;;5053323;28;20045;-74
2022/12/10 01:13:48;;;;;;;44.83;31.38;;;-0.30;99.90;;;;;;5049771;28;20041;-75
2022/12/10 01:16:17;;;;;;;48.27;31.60;;;-0.40;99.90;;;;;;5051648;28;20726;-75
2022/12/10 01:18:43;;;;;;;46.40;32.25;;;-0.40;99.90;;;;;;5052946;28;20302;-75
2022/12/10 01:21:12;;;;;;;50.50;33.15;;;-0.40;99.90;;;;;;5053103;28;20682;-74
2022/12/10 01:23:39;;;;;;;47.92;33.55;;;-0.40;99.90;;;;;;5051461;28;20051;-75
2022/12/10 01:26:09;;;;;;;52.05;35.45;;;-0.40;99.90;;;;;;5053418;28;20382;-74
2022/12/10 01:28:37;;;;;;;50.97;35.92;;;-0.30;99.90;;;;;;5052360;28;20041;-74
2022/12/10 01:31:03;;;;;;;;;;;-0.30;99.90;;;;;;5056658;28;20045;-74
2022/12/10 01:33:30;;;;;;;52.28;32.85;;;-0.30;99.90;;;;;;5050971;28;20317;-75
2022/12/10 01:35:56;;;;;;;52.33;33.85;;;-0.20;99.90;;;;;;5054226;28;20048;-74
2022/12/10 01:38:22;;;;;;;50.63;33.75;;;-0.20;99.90;;;;;;5047833;28;20056;-75
2022/12/10 01:40:48;;;;;;;53.00;34.90;;;-0.20;99.90;;;;;;5052596;28;20514;-74
2022/12/10 01:43:14;;;;;;;52.72;34.47;;;-0.20;99.90;;;;;;5063495;28;20143;-74
2022/12/10 01:45:40;;;;;;;54.95;34.88;;;-0.10;99.90;;;;;;5051787;28;20052;-75
2022/12/10 01:48:08;;;;;;;53.00;34.50;;;-0.10;99.90;;;;;;5061549;28;20087;-75
2022/12/10 01:50:34;;;;;;;51.80;33.63;;;0.00;99.90;;;;;;5069550;28;20102;-74
2022/12/10 01:53:00;;;;;;;54.55;35.78;;;0.00;99.90;;;;;;5047629;28;20041;-74
2022/12/10 01:55:42;;;;;;;54.88;35.53;;;0.10;99.90;;;;;;5057581;28;20049;-75
2022/12/10 01:58:08;;;;;;;57.20;35.78;;;0.10;99.90;;;;;;5053301;28;20048;-75
2022/12/10 02:00:38;;;;;;;55.85;37.40;;;0.20;99.90;;;;;;5065042;28;20488;-74
2022/12/10 02:03:13;;;;;;;51.67;35.72;;;0.20;99.90;;;;;;5067848;28;20037;-75
2022/12/10 02:05:57;;;;;;;52.85;34.63;;;0.20;99.90;;;;;;5057352;28;20044;-75
2022/12/10 02:08:34;;;;;;;52.38;35.22;;;0.30;99.90;;;;;;5071436;28;20033;-74
2022/12/10 02:11:28;;;;;;;52.80;35.10;;;0.30;99.90;;;;;;5055814;28;20052;-75
2022/12/10 02:14:03;;;;;;;56.42;35.17;;;0.30;99.90;;;;;;5063906;28;20399;-74
2022/12/10 02:16:37;;;;;;;53.42;33.97;;;0.30;99.90;;;;;;5075950;28;20056;-75
2022/12/10 02:19:21;;;;;;;54.63;35.17;;;0.40;99.90;;;;;;5051178;28;20525;-75
2022/12/10 02:21:50;;;;;;;54.35;34.70;;;0.40;99.90;;;;;;5055005;28;20171;-75
2022/12/10 02:24:23;;;;;;;55.72;35.78;;;0.40;99.90;;;;;;5073955;28;20043;-75
2022/12/10 02:26:57;;;;;;;56.97;36.60;;;0.40;99.90;;;;;;5064722;28;20032;-74
2022/12/10 02:29:28;;;;;;;58.63;37.28;;;0.40;99.90;;;;;;5076872;28;20043;-74
2022/12/10 02:32:01;;;;;;;56.88;36.08;;;0.60;99.90;;;;;;5060220;28;20052;-75
2022/12/10 02:34:31;;;;;;;59.85;36.88;;;0.40;99.90;;;;;;5064685;28;20048;-75
2022/12/10 02:37:03;;;;;;;57.33;36.10;;;0.40;99.90;;;;;;5061702;28;20626;-75
2022/12/10 02:39:39;;;;;;;55.03;36.60;;;0.30;99.90;;;;;;5057662;28;20052;-75
2022/12/10 02:42:08;;;;;;;57.08;37.88;;;0.40;99.90;;;;;;5055449;28;20048;-75
2022/12/10 02:44:36;;;;;;;57.08;36.25;;;0.40;99.90;;;;;;5054734;28;20047;-75
2022/12/10 02:47:03;;;;;;;55.30;37.42;;;0.40;99.90;;;;;;5053560;28;20040;-75
2022/12/10 02:49:30;;;;;;;58.73;35.73;;;0.40;99.90;;;;;;5055965;28;20118;-75
2022/12/10 02:51:56;;;;;;;61.13;37.08;;;0.40;99.90;;;;;;5058344;28;20056;-75
2022/12/10 02:54:40;;;;;;;59.20;37.60;;;0.40;99.90;;;;;;5057089;28;20067;-75
2022/12/10 02:57:36;;;;;;;56.78;36.28;;;0.40;99.90;;;;;;5055523;28;20131;-75
2022/12/10 03:00:06;;;;;;;58.40;35.97;;;0.30;99.90;;;;;;5054277;28;20044;-74
2022/12/10 03:02:40;;;;;;;66.20;38.53;;;0.30;99.90;;;;;;5050209;28;20050;-75
2022/12/10 03:05:14;;;;;;;61.05;37.50;;;0.30;99.90;;;;;;5064713;28;20112;-75
2022/12/10 03:07:52;;;;;;;62.25;39.40;;;0.20;99.90;;;;;;5055632;28;20056;-75
2022/12/10 03:10:22;;;;;;;;;;;0.20;99.90;;;;;;5054552;28;20048;-75
2022/12/10 03:12:57;;;;;;;61.38;35.47;;;0.20;99.90;;;;;;5063083;28;20029;-75
2022/12/10 03:15:25;;;;;;;62.92;37.00;;;0.20;99.90;;;;;;5063961;28;21427;-75
2022/12/10 03:17:51;;;;;;;56.67;36.60;;;0.20;99.90;;;;;;5065308;28;20118;-75
2022/12/10 03:20:17;;;;;;;65.55;39.42;;;0.10;99.90;;;;;;5059889;28;20048;-75
2022/12/10 03:22:46;;;;;;;63.75;38.17;;;0.10;99.90;;;;;;5061050;28;20115;-75
2022/12/10 03:25:17;;;;;;;65.38;38.75;;;0.10;99.90;;;;;;5062576;28;20127;-75
2022/12/10 03:27:45;;;;;;;59.22;37.75;;;0.10;99.90;;;;;;5049597;28;20056;-75
2022/12/10 03:30:10;;;;;;;65.00;39.38;;;0.00;99.90;;;;;;5054731;28;20052;-75
2022/12/10 03:32:37;;;;;;;63.20;38.38;;;0.10;99.90;;;;;;5052055;28;20052;-75
2022/12/10 03:35:04;;;;;;;67.60;38.60;;;0.10;99.90;;;;;;5057584;28;20125;-75
2022/12/10 03:37:30;;;;;;;64.25;38.17;;;0.00;99.90;;;;;;5061059;28;20044;-75
2022/12/10 03:39:58;;;;;;;63.05;39.38;;;0.10;99.90;;;;;;5064934;28;20056;-74
2022/12/10 03:42:23;;;;;;;68.20;38.42;;;0.10;99.90;;;;;;5054165;28;20040;-75
2022/12/10 03:44:51;;;;;;;61.80;38.53;;;0.10;99.90;;;;;;5067132;28;20042;-75
2022/12/10 03:47:16;;;;;;;;;;;0.10;99.90;;;;;;5054845;28;20056;-75
2022/12/10 03:49:42;;;;;;;66.63;38.55;;;0.00;99.90;;;;;;5060600;28;19928;-75
2022/12/10 03:52:09;;;;;;;64.20;37.65;;;0.00;99.90;;;;;;5088595;28;20081;-75
2022/12/10 03:54:35;;;;;;;68.28;39.83;;;0.10;99.90;;;;;;5057491;28;20040;-75
2022/12/10 03:57:00;;;;;;;64.25;39.97;;;0.10;99.90;;;;;;5060270;28;20094;-75
2022/12/10 03:59:26;;;;;;;63.70;38.20;;;0.10;99.90;;;;;;5064496;28;20048;-75
2022/12/10 04:01:52;;;;;;;66.82;42.33;;;0.10;99.90;;;;;;5050829;28;20055;-75
2022/12/10 04:04:18;;;;;;;68.47;41.72;;;0.10;99.90;;;;;;5053889;28;20044;-74
2022/12/10 04:06:43;;;;;;;68.07;41.75;;;0.10;99.90;;;;;;5061718;28;20040;-74
2022/12/10 04:09:13;;;;;;;70.30;44.00;;;0.10;99.90;;;;;;5055406;28;20123;-74
2022/12/10 04:11:39;;;;;;;77.70;44.60;;;0.10;99.90;;;;;;5084700;28;20475;-73
2022/12/10 04:16:49;;;;;;;74.13;43.08;;;0.00;99.90;;;;;;5053913;28;20048;-74
2022/12/10 04:19:16;;;;;;;73.72;43.75;;;0.10;99.90;;;;;;5056683;28;20047;-73
2022/12/10 04:27:29;;;;;;;67.00;40.22;;;0.10;99.90;;;;;;5055116;28;20048;-74
2022/12/10 04:29:56;;;;;;;66.68;40.00;;;0.00;99.90;;;;;;5063626;28;20068;-74
2022/12/10 04:32:23;;;;;;;67.77;40.30;;;0.00;99.90;;;;;;5061162;28;20503;-74
2022/12/10 04:34:49;;;;;;;67.30;38.65;;;0.00;99.90;;;;;;5055201;28;20313;-74
2022/12/10 04:37:15;;;;;;;72.38;41.75;;;0.00;99.90;;;;;;5057151;28;20131;-74
2022/12/10 04:39:41;;;;;;;69.03;39.88;;;0.00;99.90;;;;;;5090624;28;20040;-74
2022/12/10 04:42:07;;;;;;;72.70;40.15;;;0.00;99.90;;;;;;5061703;28;20097;-74
2022/12/10 04:44:33;;;;;;;67.03;39.43;;;-0.10;99.90;;;;;;5064141;28;20070;-74
2022/12/10 04:47:00;;;;;;;69.22;39.25;;;0.00;99.90;;;;;;5057199;28;20383;-74
2022/12/10 04:49:26;;;;;;;67.93;39.90;;;-0.10;99.90;;;;;;5057720;28;20041;-74
2022/12/10 04:51:52;;;;;;;66.57;39.45;;;-0.20;99.90;;;;;;5091788;28;20097;-74
2022/12/10 04:54:18;;;;;;;69.05;41.28;;;-0.20;99.90;;;;;;5057037;28;20043;-74
2022/12/10 04:56:45;;;;;;;67.82;38.45;;;-0.30;99.90;;;;;;5060636;28;20113;-75
2022/12/10 04:59:11;;;;;;;69.30;41.28;;;-0.40;99.90;;;;;;5062375;28;20045;-74
2022/12/10 05:01:37;;;;;;;74.10;39.35;;;-0.40;99.90;;;;;;5071177;28;20107;-73
2022/12/10 05:04:06;;;;;;;68.80;40.45;;;-0.40;99.90;;;;;;5089901;28;20045;-74
2022/12/10 05:06:32;;;;;;;78.25;41.20;;;-0.30;99.90;;;;;;5056367;28;20127;-75
2022/12/10 05:08:58;;;;;;;69.68;40.65;;;-0.30;99.90;;;;;;5059908;28;20048;-74
2022/12/10 05:11:27;;;;;;;68.70;40.80;;;-0.30;99.90;;;;;;5062784;28;20040;-74
2022/12/10 05:13:54;;;;;;;65.30;38.53;;;-0.30;99.90;;;;;;5056812;28;20036;-74
2022/12/10 05:16:21;;;;;;;69.05;39.90;;;-0.30;99.90;;;;;;5052401;28;20411;-74
2022/12/10 05:18:47;;;;;;;74.80;39.97;;;-0.30;99.90;;;;;;5063783;28;20108;-74
2022/12/10 05:21:15;;;;;;;68.30;39.25;;;-0.30;99.90;;;;;;5060717;28;20037;-74
2022/12/10 05:23:44;;;;;;;71.38;40.10;;;-0.30;99.90;;;;;;5072509;28;20055;-74
2022/12/10 05:26:14;;;;;;;69.72;40.45;;;-0.30;99.90;;;;;;5058170;28;20119;-74
2022/12/10 05:28:45;;;;;;;70.93;39.72;;;-0.30;99.90;;;;;;5061886;28;20552;-74
2022/12/10 05:31:16;;;;;;;72.47;40.35;;;-0.30;99.90;;;;;;5056478;28;20066;-74
2022/12/10 05:33:42;;;;;;;74.00;42.60;;;-0.30;99.90;;;;;;5064022;28;20052;-74
2022/12/10 05:36:11;;;;;;;67.97;38.88;;;-0.30;99.90;;;;;;5065104;28;20403;-74
2022/12/10 05:38:37;;;;;;;78.68;41.03;;;-0.40;99.90;;;;;;5059654;28;20060;-74
2022/12/10 05:41:14;;;;;;;74.75;39.47;;;-0.40;99.90;;;;;;5053372;28;20086;-74
2022/12/10 05:43:41;;;;;;;68.75;38.45;;;-0.40;99.90;;;;;;5056273;28;20113;-74
2022/12/10 05:46:10;;;;;;;73.70;40.63;;;-0.40;99.90;;;;;;5088590;28;20180;-73
2022/12/10 05:48:36;;;;;;;73.15;39.80;;;-0.40;99.90;;;;;;5061609;28;20048;-74
2022/12/10 05:51:06;;;;;;;73.53;41.30;;;-0.40;99.90;;;;;;5063938;28;20416;-74
2022/12/10 05:53:31;;;;;;;70.72;38.35;;;-0.30;99.90;;;;;;5085490;28;20044;-74
2022/12/10 05:56:02;;;;;;;72.72;40.08;;;-0.40;99.90;;;;;;5056795;28;20661;-74
2022/12/10 05:58:29;;;;;;;73.22;41.28;;;-0.30;99.90;;;;;;5065715;28;20071;-74
2022/12/10 06:00:55;;;;;;;76.60;40.58;;;-0.40;99.90;;;;;;5061034;28;20976;-74
2022/12/10 06:03:21;;;;;;;77.15;40.83;;;-0.30;99.90;;;;;;5055838;28;20039;-74
2022/12/10 06:05:47;;;;;;;75.30;39.72;;;-0.30;99.90;;;;;;5079692;28;20641;-73
2022/12/10 06:08:12;;;;;;;75.28;40.72;;;-0.30;99.90;;;;;;5059622;28;20495;-74
2022/12/10 06:10:38;;;;;;;76.05;40.50;;;-0.40;99.90;;;;;;5059887;28;20037;-74
2022/12/10 06:13:04;;;;;;;74.53;39.67;;;-0.30;99.90;;;;;;5061936;28;20098;-74
2022/12/10 06:15:32;;;;;;;72.47;39.08;;;-0.30;99.90;;;;;;5063467;28;20040;-74
2022/12/10 06:17:58;;;;;;;73.45;39.80;;;-0.30;99.90;;;;;;5053437;28;20415;-74
2022/12/10 06:20:25;;;;;;;76.32;40.47;;;-0.30;99.90;;;;;;5055745;28;20032;-74
2022/12/10 06:22:51;;;;;;;72.68;38.78;;;-0.30;99.90;;;;;;5065653;28;20049;-74
2022/12/10 06:25:18;;;;;;;72.53;40.17;;;-0.30;99.90;;;;;;5064455;28;20055;-74
2022/12/10 06:27:44;;;;;;;76.13;38.93;;;-0.40;99.90;;;;;;5055663;28;20044;-74
2022/12/10 06:30:10;;;;;;;67.28;37.78;;;-0.40;99.90;;;;;;5051221;28;20463;-74
2022/12/10 06:32:36;;;;;;;68.63;38.13;;;-0.50;99.90;;;;;;5061696;28;20133;-74
2022/12/10 06:35:03;;;;;;;71.95;39.88;;;-0.50;99.90;;;;;;5064214;28;20050;-74
2022/12/10 06:37:28;;;;;;;75.80;39.38;;;-0.60;99.90;;;;;;5063295;28;20024;-74
2022/12/10 06:39:54;;;;;;;72.43;36.65;;;-0.60;99.90;;;;;;5064754;28;20434;-74
2022/12/10 06:42:20;;;;;;;71.88;39.60;;;-0.60;99.90;;;;;;5053906;28;20647;-74
2022/12/10 06:44:47;;;;;;;75.28;39.75;;;-0.70;99.90;;;;;;5060778;28;20052;-74
2022/12/10 06:47:13;;;;;;;73.50;39.53;;;-0.70;99.90;;;;;;5064688;28;20884;-74
2022/12/10 06:49:40;;;;;;;77.40;39.30;;;-0.70;99.90;;;;;;5067747;28;20052;-74
2022/12/10 06:52:05;;;;;;;78.65;40.15;;;-0.70;99.90;;;;;;5064414;28;20696;-74
2022/12/10 06:54:31;;;;;;;72.95;40.15;;;-0.70;99.90;;;;;;5067400;28;20029;-74
2022/12/10 06:56:57;;;;;;;71.18;39.80;;;-0.60;99.90;;;;;;5058468;28;20522;-74
2022/12/10 06:59:23;;;;;;;73.90;39.55;;;-0.60;99.90;;;;;;5060762;28;20052;-74
2022/12/10 07:01:49;;;;;;;71.95;39.50;;;-0.60;99.90;;;;;;5071679;28;20044;-74
2022/12/10 07:04:14;;;;;;;76.20;42.00;;;-0.60;99.90;;;;;;5076959;28;20082;-74
2022/12/10 07:06:40;;;;;;;74.47;40.42;;;-0.60;99.90;;;;;;5074990;28;20185;-74
2022/12/10 07:09:06;;;;;;;73.60;40.00;;;-0.50;99.90;;;;;;5068312;28;20048;-74
2022/12/10 07:11:32;;;;;;;76.22;41.53;;;-0.60;99.90;;;;;;5055177;28;20483;-74
2022/12/10 07:13:58;;;;;;;82.60;45.17;;;-0.60;99.90;;;;;;5058987;28;20044;-74
2022/12/10 07:16:26;;;;;;;77.63;41.47;;;-0.60;99.90;;;;;;5058427;28;20052;-73
2022/12/10 07:18:54;;;;;;;75.30;40.38;;;-0.50;99.90;;;;;;5058978;28;20056;-73
2022/12/10 07:21:24;;;;;;;78.75;42.30;;;-0.50;99.90;;;;;;5061048;28;20040;-74
2022/12/10 07:23:51;;;;;;;76.25;39.63;;;-0.50;99.90;;;;;;5054714;28;20105;-78
2022/12/10 07:26:17;;;;;;;75.13;40.25;;;-0.50;99.90;;;;;;5065691;28;20052;-75
2022/12/10 07:28:45;;;;;;;76.68;40.25;;;-0.50;99.90;;;;;;5068542;28;20044;-75
2022/12/10 07:31:11;;;;;;;73.07;40.92;;;-0.50;99.90;;;;;;5063415;28;20041;-75
2022/12/10 07:33:37;;;;;;;74.78;40.58;;;-0.40;99.90;;;;;;5060505;28;20068;-74
2022/12/10 07:36:09;;;;;;;73.88;40.50;;;-0.40;99.90;;;;;;5057106;28;20171;-74
2022/12/10 07:38:36;;;;;;;69.28;38.65;;;-0.40;99.90;;;;;;5072519;28;20527;-74
2022/12/10 07:41:06;;;;;;;70.10;38.78;;;-0.40;99.90;;;;;;5062710;28;20049;-76
2022/12/10 07:43:39;;;;;;;74.40;38.60;;;-0.40;99.90;;;;;;5058701;28;20040;-75
2022/12/10 07:46:13;;;;;;;72.00;39.72;;;-0.40;99.90;;;;;;5066930;28;20072;-74
2022/12/10 07:48:40;;;;;;;71.45;39.65;;;-0.40;99.90;;;;;;5053397;28;20033;-74
2022/12/10 07:51:06;;;;;;;;;;;-0.40;99.90;;;;;;5061749;28;20041;-74
2022/12/10 07:53:33;;;;;;;70.80;37.58;;;-0.40;99.90;;;;;;5067301;28;19920;-74
2022/12/10 07:55:59;;;;;;;71.78;37.55;;;-0.40;99.90;;;;;;5062284;28;20044;-74
2022/12/10 07:58:25;;;;;;;74.68;38.92;;;-0.40;99.90;;;;;;5066840;28;20074;-74
2022/12/10 08:00:51;;;;;;;77.65;41.03;;;-0.30;99.90;;;;;;5054945;28;20056;-74
2022/12/10 08:03:17;;;;;;;70.25;38.55;;;-0.30;99.90;;;;;;5086748;27;20044;-74
2022/12/10 08:05:42;;;;;;;75.32;40.72;;;-0.30;99.90;;;;;;5078069;28;20098;-74
2022/12/10 08:08:08;;;;;;;74.15;40.17;;;-0.30;99.90;;;;;;5073639;28;20135;-74
2022/12/10 08:10:35;;;;;;;79.35;42.85;;;-0.20;99.90;;;;;;5063660;28;20070;-74
2022/12/10 08:13:02;;;;;;;73.72;40.05;;;-0.20;99.90;;;;;;5060652;28;20036;-74
2022/12/10 08:15:30;;;;;;;78.57;42.28;;;-0.20;99.90;;;;;;5095388;28;20124;-74
2022/12/10 08:17:57;;;;;;;72.70;39.72;;;-0.20;99.90;;;;;;5090541;28;20399;-74
2022/12/10 08:20:24;;;;;;;74.00;41.00;;;-0.20;99.90;;;;;;5061095;28;20052;-74
2022/12/10 08:22:50;;;;;;;73.53;40.38;;;-0.10;99.90;;;;;;5058055;28;20098;-74
2022/12/10 08:25:16;;;;;;;75.43;41.00;;;-0.10;99.90;;;;;;5064516;28;20082;-73
2022/12/10 08:27:42;;;;;;;79.82;40.83;;;-0.20;99.90;;;;;;5063464;28;20725;-74
2022/12/10 08:30:08;;;;;;;72.68;40.88;;;-0.20;99.90;;;;;;5063173;28;20040;-74
2022/12/10 08:32:34;;;;;;;76.20;40.97;;;-0.10;99.90;;;;;;5069510;28;20076;-74
2022/12/10 08:34:59;;;;;;;77.13;40.53;;;0.00;99.90;;;;;;5062871;28;20491;-74
2022/12/10 08:37:25;;;;;;;72.95;41.85;;;0.00;99.90;;;;;;5057011;28;20048;-74
2022/12/10 08:39:51;;;;;;;73.93;42.30;;;0.00;99.90;;;;;;5061706;28;20064;-70
2022/12/10 08:42:17;;;;;;;73.63;39.78;;;0.00;99.90;;;;;;5058489;28;20067;-78
2022/12/10 08:44:43;;;;;;;73.18;41.45;;;0.00;99.90;;;;;;5088245;27;20052;-75
2022/12/10 08:47:09;;;;;;;71.40;40.28;;;0.00;99.90;;;;;;5066090;28;20076;-74
2022/12/10 08:49:34;;;;;;;81.43;43.53;;;0.00;99.90;;;;;;5058039;28;20530;-76
2022/12/10 08:52:00;;;;;;;78.85;45.03;;;0.00;99.90;;;;;;5065244;28;20056;-75
2022/12/10 08:54:25;;;;;;;73.82;42.22;;;0.00;99.90;;;;;;5062824;28;20037;-77
2022/12/10 08:56:51;;;;;;;73.20;41.08;;;0.00;99.90;;;;;;5061124;28;20044;-76
2022/12/10 08:59:17;;;;;;;75.63;42.58;;;0.00;99.90;;;;;;5064903;28;20064;-74
2022/12/10 09:01:42;;;;;;;77.90;44.15;;;0.10;99.90;;;;;;5057087;28;20040;-74
2022/12/10 09:04:09;;;;;;;77.45;44.38;;;0.10;99.90;;;;;;5052214;28;20528;-77
2022/12/10 09:06:35;;;;;;;80.07;44.67;;;0.10;99.90;;;;;;5065021;28;20087;-74
2022/12/10 09:09:00;;;;;;;74.13;42.70;;;0.10;99.90;;;;;;5061280;28;20064;-76
2022/12/10 09:11:32;;;;;;;74.80;41.30;;;0.10;99.90;;;;;;5077488;28;20048;-76
2022/12/10 09:13:59;;;;;;;75.38;41.88;;;0.10;99.90;;;;;;5062550;28;20044;-79
2022/12/10 09:16:36;;;;;;;69.83;41.17;;;0.10;99.90;;;;;;5072696;28;20100;-76
2022/12/10 09:19:03;;;;;;;72.20;41.72;;;0.10;99.90;;;;;;5086563;28;20044;-76
2022/12/10 09:21:30;;;;;;;68.63;39.72;;;0.10;99.90;;;;;;5070355;28;20036;-76
2022/12/10 09:23:56;;;;;;;71.82;40.28;;;0.10;99.90;;;;;;5071292;28;20048;-76
2022/12/10 09:26:22;;;;;;;75.72;41.92;;;0.20;99.90;;;;;;5083776;28;20124;-76
2022/12/10 09:28:48;;;;;;;74.05;41.38;;;0.20;99.90;;;;;;5069663;28;20298;-76
2022/12/10 09:31:16;;;;;;;75.93;41.88;;;0.20;99.90;;;;;;5067552;28;20052;-73
2022/12/10 09:33:42;;;;;;;78.15;40.75;;;0.30;99.90;;;;;;5075528;28;21098;-72
2022/12/10 09:36:11;;;;;;;73.77;42.33;;;0.20;99.90;;;;;;5055316;28;20505;-75
2022/12/10 09:38:39;;;;;;;70.40;40.95;;;0.20;99.90;;;;;;5063574;28;20410;-74
2022/12/10 09:41:20;;;;;;;73.60;40.67;;;0.30;99.90;;;;;;5063607;28;20123;-75
2022/12/10 09:44:09;;;;;;;77.65;44.75;;;0.30;99.90;;;;;;5059978;28;20048;-75
2022/12/10 09:46:53;;;;;;;72.63;41.65;;;0.30;99.90;;;;;;5060588;28;20033;-74
2022/12/10 09:49:49;;;;;;;74.72;41.95;;;0.40;99.90;;;;;;5056852;28;20053;-73
2022/12/10 09:52:18;;;;;;;75.90;42.78;;;0.40;99.90;;;;;;5062996;28;20044;-81
2022/12/10 09:54:46;;;;;;;73.65;41.33;;;0.40;99.90;;;;;;5067799;28;20043;-79
2022/12/10 09:57:27;;;;;;;75.47;43.70;;;0.40;99.90;;;;;;5069463;28;20049;-76
2022/12/10 09:59:54;;;;;;;74.95;42.17;;;0.40;99.90;;;;;;5068947;28;20127;-75
2022/12/10 10:02:23;;;;;;;73.70;41.97;;;0.50;99.90;;;;;;5060496;28;20056;-75
2022/12/10 10:04:51;;;;;;;70.43;41.20;;;0.50;99.90;;;;;;5063616;28;20044;-75
2022/12/10 10:07:28;;;;;;;72.57;41.53;;;0.60;99.90;;;;;;5057620;28;20049;-75
2022/12/10 10:10:00;;;;;;;68.30;40.70;;;0.60;99.90;;;;;;5063846;28;20037;-75
2022/12/10 10:12:32;;;;;;;78.50;42.63;;;0.60;99.90;;;;;;5101457;28;20051;-76
2022/12/10 10:14:59;;;;;;;75.22;43.03;;;0.60;99.90;;;;;;5060058;28;20888;-76
2022/12/10 10:17:35;;;;;;;74.28;42.08;;;0.60;99.90;;;;;;5068307;28;20048;-75
2022/12/10 10:20:01;;;;;;;76.07;44.00;;;0.70;99.90;;;;;;5060216;28;20506;-76
2022/12/10 10:22:26;;;;;;;72.72;41.30;;;0.70;99.90;;;;;;5061528;28;20271;-75
2022/12/10 10:24:52;;;;;;;75.40;41.90;;;0.70;99.90;;;;;;5063552;28;20475;-76
2022/12/10 10:27:28;;;;;;;73.97;44.08;;;0.70;99.90;;;;;;5067093;28;20059;-77
2022/12/10 10:29:56;;;;;;;76.70;45.45;;;0.80;99.90;;;;;;5064339;28;20439;-76
2022/12/10 10:32:23;;;;;;;74.30;43.38;;;0.80;99.90;;;;;;5072445;28;21787;-77
2022/12/10 10:34:54;;;;;;;74.40;41.35;;;0.80;99.90;;;;;;5060996;28;20114;-72
2022/12/10 10:37:42;;;;;;;80.65;44.15;;;0.90;99.90;;;;;;5061670;28;20394;-71
2022/12/10 10:40:23;;;;;;;76.80;43.70;;;1.00;99.90;;;;;;5069223;28;20044;-71
2022/12/10 10:42:54;;;;;;;78.00;45.25;;;1.00;99.90;;;;;;5068509;28;20052;-71
2022/12/10 10:45:40;;;;;;;77.00;44.13;;;1.00;99.90;;;;;;5067300;28;20145;-71
2022/12/10 10:50:45;;;;;;;76.43;46.03;;;1.10;99.90;;;;;;5110100;27;20411;-73
2022/12/10 10:53:23;;;;;;;82.18;48.97;;;1.20;99.90;;;;;;5118674;27;20051;-73
2022/12/10 10:55:50;;;;;;;76.57;46.42;;;1.20;99.90;;;;;;5074456;28;20051;-77
2022/12/10 10:58:20;;;;;;;74.20;45.60;;;1.30;99.90;;;;;;5082430;28;20042;-74
2022/12/10 11:01:01;;;;;;;74.18;46.40;;;1.30;99.90;;;;;;5105428;28;20048;-76
2022/12/10 11:03:29;;;;;;;73.78;44.03;;;1.30;99.90;;;;;;5086626;28;20087;-75
2022/12/10 11:05:57;;;;;;;74.07;44.95;;;1.30;99.90;;;;;;5100656;28;20517;-77
2022/12/10 11:08:27;;;;;;;78.13;47.65;;;1.30;99.90;;;;;;5086926;28;20502;-77
2022/12/10 11:11:19;;;;;;;77.80;46.63;;;1.30;99.90;;;;;;5082612;28;20480;-77
2022/12/10 11:13:44;;;;;;;83.15;49.58;;;1.30;99.90;;;;;;5072508;28;20058;-75
2022/12/10 11:16:20;;;;;;;78.00;46.95;;;1.30;99.90;;;;;;5103122;28;20035;-76
2022/12/10 11:19:04;;;;;;;76.68;47.88;;;1.20;99.90;;;;;;5096946;28;20047;-77
2022/12/10 11:21:33;;;;;;;75.45;45.60;;;1.20;99.90;;;;;;5104418;28;20040;-74
2022/12/10 11:24:03;;;;;;;78.20;49.10;;;1.20;99.90;;;;;;5105221;28;20086;-74
2022/12/10 11:26:55;;;;;;;79.00;45.75;;;1.20;99.90;;;;;;5101892;28;20539;-75
2022/12/10 11:29:47;;;;;;;75.25;45.30;;;1.20;99.90;;;;;;5083174;28;20433;-75
2022/12/10 11:32:34;;;;;;;75.93;46.00;;;1.20;99.90;;;;;;5085010;28;20062;-73
2022/12/10 11:35:10;;;;;;;79.30;47.15;;;1.20;99.90;;;;;;5080131;28;20044;-71
2022/12/10 11:37:54;;;;;;;81.70;47.97;;;1.10;99.90;;;;;;5100904;28;20040;-73
2022/12/10 11:40:23;;;;;;;82.07;48.67;;;1.10;99.90;;;;;;5101103;28;20098;-73
2022/12/10 11:42:56;;;;;;;86.32;49.67;;;1.10;99.90;;;;;;5100301;28;20044;-73
2022/12/10 11:45:45;;;;;;;92.53;52.47;;;1.10;99.90;;;;;;5118176;28;20055;-73
2022/12/10 11:48:44;;;;;;;87.22;50.92;;;1.10;99.90;;;;;;5100528;28;20036;-73
2022/12/10 11:51:39;;;;;;;86.97;50.60;;;1.10;99.90;;;;;;5079562;28;20052;-75
2022/12/10 11:54:17;;;;;;;91.80;51.33;;;1.00;99.90;;;;;;5062091;28;20048;-78
2022/12/10 11:56:59;;;;;;;99.28;53.20;;;1.00;99.90;;;;;;5097268;28;20042;-77
2022/12/10 11:59:52;;;;;;;91.25;52.92;;;1.00;99.90;;;;;;5083323;28;20110;-76
2022/12/10 12:02:29;;;;;;;96.25;51.70;;;1.00;99.90;;;;;;5067420;28;20047;-75
2022/12/10 12:05:19;;;;;;;91.00;52.00;;;0.90;99.90;;;;;;5066079;28;20483;-74
2022/12/10 12:08:06;;;;;;;85.25;48.60;;;1.00;99.90;;;;;;5069665;28;20056;-72
2022/12/10 12:10:46;;;;;;;82.07;47.65;;;1.00;99.90;;;;;;5086511;28;20063;-71
2022/12/10 12:13:27;;;;;;;85.82;49.85;;;0.90;99.90;;;;;;5067950;28;20509;-73
2022/12/10 12:16:16;;;;;;;86.38;48.97;;;1.00;99.90;;;;;;5068100;28;20430;-76
2022/12/10 12:18:57;;;;;;;88.95;51.45;;;1.00;99.90;;;;;;5085406;28;20051;-76
2022/12/10 12:21:23;;;;;;;94.88;52.28;;;1.00;99.90;;;;;;5082409;28;20799;-76
2022/12/10 12:24:11;;;;;;;98.68;51.80;;;1.00;99.90;;;;;;5069087;28;20040;-74
2022/12/10 12:26:54;;;;;;;95.53;51.88;;;1.00;99.90;;;;;;5086045;28;20055;-75
2022/12/10 12:29:40;;;;;;;88.70;48.65;;;1.10;99.90;;;;;;5079077;28;20531;-77
2022/12/10 12:32:44;;;;;;;87.53;49.00;;;1.10;99.90;;;;;;5078473;28;20150;-75
2022/12/10 12:35:21;;;;;;;87.05;47.42;;;1.10;99.90;;;;;;5053127;28;20058;-77
2022/12/10 12:38:00;;;;;;;92.85;46.38;;;1.10;99.90;;;;;;5068343;28;20158;-77
2022/12/10 12:40:33;;;;;;;84.18;46.30;;;1.10;99.90;;;;;;5086938;28;20056;-78
2022/12/10 12:43:07;;;;;;;84.75;47.00;;;1.10;99.90;;;;;;5083669;28;20040;-80
2022/12/10 12:45:42;;;;;;;84.53;44.95;;;1.00;99.90;;;;;;5088159;28;20044;-73
2022/12/10 12:48:38;;;;;;;87.63;45.53;;;1.00;99.90;;;;;;5059318;28;20425;-72
2022/12/10 12:51:17;;;;;;;82.70;45.27;;;1.00;99.90;;;;;;5076131;28;20109;-78
2022/12/10 12:53:43;;;;;;;86.63;45.53;;;1.00;99.90;;;;;;5088062;28;20036;-74
2022/12/10 12:56:33;;;;;;;84.55;44.80;;;1.00;99.90;;;;;;5087285;28;20116;-74
2022/12/10 12:59:12;;;;;;;91.25;47.50;;;1.00;99.90;;;;;;5065039;28;20113;-76
2022/12/10 13:01:49;;;;;;;89.40;46.47;;;1.00;99.90;;;;;;5087664;28;20047;-76
2022/12/10 13:04:15;;;;;;;;;;;1.00;99.90;;;;;;5067543;28;20097;-76